EINN

Shannon Airport

Shannon, Ireland
METAR EINN 231430Z 10005KT 9999 FEW030 SCT250 22/10 Q1023 NOSIG
Observed Flight Rules
May-23 @ 14:30 UTC (39 minutes ago) Visual Flight Rules
Wind Visibility Clouds
100° at 5 knots 10,000+ meters
  • Few at 3,000' AGL
  • Scattered at 25,000' AGL
Temperatures Readings
Current 22°C / 72°F
Dewpoint 10°C / 50°F
Humidity 47%
Altimeter 30.21" Hg
Pressure 1023 hPa
Elevation 20
METAR EINN 231430Z 10005KT 9999 FEW030 SCT250 22/10 Q1023 NOSIG
Observed Flight Rules
May-23 @ 14:30 UTC
(39 minutes ago)
VFR
Wind Visibility
100° at 5 knots 10,000+ meters
Clouds
  • Few at 3,000' AGL
  • Scattered at 25,000' AGL
Temperature Dewpoint
22°C / 72°F 10°C / 50°F
Humidity Altimeter Pressure
47% 30.21" Hg 1023 hPa